Time;durP1;ratioP1;P1;durP2;ratioP2;P2;SDS_P1;SDS_P2;PMS_P1;PMS_P2;Temp;Humidity;BMP_temperature;BMP_pressure;BME280_temperature;BME280_humidity;BME280_pressure;Samples;Min_cycle;Max_cycle;Signal;HPM_P1;HPM_P2
2022/12/03 00:00:30;;;;;;;;;56.75;46.50;;;;;9.08;67.72;101418.00;4992400;28;45424;-71
2022/12/03 00:02:55;;;;;;;;;46.50;39.00;;;;;9.49;68.23;101414.47;4990506;28;47316;-71
2022/12/03 00:05:20;;;;;;;;;39.00;35.50;;;;;9.13;67.73;101422.25;4992096;28;45493;-72
2022/12/03 00:07:46;;;;;;;;;44.50;38.50;;;;;9.11;67.19;101424.09;4992098;28;45305;-71
2022/12/03 00:10:11;;;;;;;;;43.25;37.50;;;;;8.99;67.60;101431.69;4992284;28;45452;-71
2022/12/03 00:12:37;;;;;;;;;41.00;32.75;;;;;9.27;67.18;101430.50;4991681;28;46079;-72
2022/12/03 00:15:04;;;;;;;;;40.25;32.00;;;;;9.30;66.94;101418.84;4992000;28;45404;-70
2022/12/03 00:17:29;;;;;;;;;40.25;32.50;;;;;9.36;66.61;101413.28;4992337;28;45750;-70
2022/12/03 00:19:54;;;;;;;;;46.25;40.75;;;;;9.61;65.92;101426.38;4987121;28;45507;-71
2022/12/03 00:22:20;;;;;;;;;51.50;42.75;;;;;9.18;66.20;101359.91;4987764;28;45683;-71
2022/12/03 00:24:45;;;;;;;;;52.75;43.75;;;;;9.64;65.86;101407.59;4968781;28;45746;-72
2022/12/03 00:27:10;;;;;;;;;58.00;43.50;;;;;9.51;66.20;101409.94;4990752;28;45493;-72
2022/12/03 00:29:36;;;;;;;;;45.25;37.00;;;;;9.66;65.92;101404.84;4985916;28;45482;-72
2022/12/03 00:32:01;;;;;;;;;47.50;38.75;;;;;9.67;65.82;101406.59;4989347;28;46117;-72
2022/12/03 00:34:26;;;;;;;;;58.50;43.25;;;;;9.52;65.60;101400.16;4988688;28;45783;-71
2022/12/03 00:36:52;;;;;;;;;55.00;42.75;;;;;9.66;65.69;101402.19;4987573;28;45564;-72
2022/12/03 00:39:17;;;;;;;;;48.00;36.50;;;;;9.45;65.76;101401.34;4986936;28;45532;-71
2022/12/03 00:41:42;;;;;;;;;61.50;49.75;;;;;9.09;65.76;101374.44;4984945;28;47331;-72
2022/12/03 00:44:08;;;;;;;;;34.75;32.25;;;;;9.63;65.23;101400.53;4987616;28;45475;-72
2022/12/03 00:46:33;;;;;;;;;56.00;44.75;;;;;8.90;65.89;101389.50;4987402;28;45600;-72
2022/12/03 00:48:58;;;;;;;;;50.25;42.25;;;;;9.12;65.99;101380.59;4986728;28;45612;-70
2022/12/03 00:51:23;;;;;;;;;46.00;32.00;;;;;9.23;65.37;101380.97;4992604;28;47421;-72
2022/12/03 00:53:49;;;;;;;;;53.25;44.25;;;;;9.25;66.42;101384.47;4996926;28;45312;-72
2022/12/03 00:56:14;;;;;;;;;55.50;41.00;;;;;9.48;65.23;101394.09;4990406;28;45450;-72
2022/12/03 00:58:39;;;;;;;;;47.50;37.00;;;;;9.29;65.17;101375.41;4998043;28;45398;-72
2022/12/03 01:01:05;;;;;;;;;50.75;40.00;;;;;9.52;65.34;101392.16;4996840;28;46011;-72
2022/12/03 01:03:30;;;;;;;;;41.25;38.25;;;;;8.96;66.18;101394.56;4996734;28;45488;-72
2022/12/03 01:05:56;;;;;;;;;45.25;35.50;;;;;8.32;66.42;101292.53;4996736;28;45402;-72
2022/12/03 01:08:21;;;;;;;;;55.50;44.50;;;;;9.01;66.41;101391.69;4996893;28;46451;-72
2022/12/03 01:10:46;;;;;;;;;51.50;40.25;;;;;9.00;66.39;101396.16;4996881;28;47126;-72
2022/12/03 01:13:13;;;;;;;;;58.75;44.50;;;;;8.87;66.98;101397.59;4996824;28;45647;-72
2022/12/03 01:15:38;;;;;;;;;48.00;40.25;;;;;8.96;66.50;101378.59;4996697;28;45632;-72
2022/12/03 01:18:03;;;;;;;;;55.00;43.75;;;;;8.90;66.52;101393.00;4996375;28;45457;-72
2022/12/03 01:20:29;;;;;;;;;48.00;42.00;;;;;9.01;66.13;101389.88;4991883;28;48242;-72
2022/12/03 01:22:54;;;;;;;;;60.00;41.50;;;;;8.82;66.29;101349.03;4984745;28;45434;-72
2022/12/03 01:25:20;;;;;;;;;58.50;46.00;;;;;9.07;66.49;101391.44;4985296;28;45646;-72
2022/12/03 01:27:45;;;;;;;;;60.25;49.25;;;;;8.98;66.01;101392.69;4995821;28;45490;-72
2022/12/03 01:30:12;;;;;;;;;45.75;40.00;;;;;9.29;65.83;101391.38;4995999;28;46208;-72
2022/12/03 01:32:38;;;;;;;;;58.50;45.50;;;;;9.18;65.28;101377.69;4995897;28;45344;-72
2022/12/03 01:35:03;;;;;;;;;49.50;39.50;;;;;9.15;65.43;101383.13;4996238;28;45499;-72
2022/12/03 01:37:29;;;;;;;;;49.25;38.50;;;;;9.48;65.68;101386.09;4981748;28;45367;-72
2022/12/03 01:39:55;;;;;;;;;49.00;41.00;;;;;9.26;65.43;101375.53;4977919;28;46279;-72
2022/12/03 01:42:24;;;;;;;;;55.50;45.50;;;;;9.05;65.48;101370.19;4995776;28;45429;-72
2022/12/03 01:44:52;;;;;;;;;49.00;40.75;;;;;8.71;65.77;101323.75;4995991;28;45597;-71
2022/12/03 01:47:21;;;;;;;;;48.00;37.00;;;;;9.24;66.17;101390.69;4985417;28;45685;-72
2022/12/03 01:50:00;;;;;;;;;46.50;41.00;;;;;9.30;65.18;101387.78;4995664;28;46296;-72
2022/12/03 01:52:30;;;;;;;;;51.25;40.50;;;;;9.39;65.10;101387.38;4995530;28;45606;-72
2022/12/03 01:54:58;;;;;;;;;46.75;40.00;;;;;9.38;64.68;101387.44;4995815;28;45376;-72
2022/12/03 01:57:26;;;;;;;;;37.50;27.75;;;;;9.31;64.38;101399.28;4995975;28;45403;-72
2022/12/03 01:59:54;;;;;;;;;45.00;30.00;;;;;9.22;64.89;101400.56;4995425;28;46105;-72
2022/12/03 02:02:24;;;;;;;;;38.25;35.75;;;;;9.01;65.41;101397.88;4995257;28;45471;-72
2022/12/03 02:04:53;;;;;;;;;61.00;47.25;;;;;8.85;65.17;101375.50;4995346;28;45453;-71
2022/12/03 02:07:20;;;;;;;;;52.25;38.00;;;;;8.96;65.28;101402.56;4995852;28;45436;-71
2022/12/03 02:09:45;;;;;;;;;48.50;37.75;;;;;8.69;64.52;101325.63;4994039;28;46335;-71
2022/12/03 02:12:16;;;;;;;;;49.00;38.25;;;;;9.15;64.65;101393.75;4995317;28;45368;-70
2022/12/03 02:14:42;;;;;;;;;49.00;39.75;;;;;9.14;64.67;101397.34;4995755;28;45467;-70
2022/12/03 02:17:08;;;;;;;;;57.50;42.75;;;;;9.28;64.50;101397.63;4995658;28;45372;-72
2022/12/03 02:19:34;;;;;;;;;63.25;45.75;;;;;8.30;64.20;101265.16;4995046;28;45290;-72
2022/12/03 02:22:22;;;;;;;;;47.00;40.75;;;;;9.13;64.11;101395.63;4971573;28;45566;-70
2022/12/03 02:25:35;;;;;;;;;53.25;42.25;;;;;9.11;64.68;101402.81;4996159;28;45483;-72
2022/12/03 02:28:02;;;;;;;;;58.50;47.75;;;;;8.66;64.37;101328.38;4899547;28;45723;-72
2022/12/03 02:30:29;;;;;;;;;47.75;42.25;;;;;8.91;64.62;101391.22;4909363;28;45429;-73
2022/12/03 02:32:56;;;;;;;;;58.50;47.25;;;;;8.87;65.03;101387.81;4905682;28;45496;-70
2022/12/03 02:35:24;;;;;;;;;44.50;35.50;;;;;8.94;64.63;101390.25;4902725;28;45559;-72
2022/12/03 02:37:58;;;;;;;;;50.25;42.00;;;;;8.97;64.69;101388.28;4914103;28;45365;-72
2022/12/03 02:40:27;;;;;;;;;46.25;41.00;;;;;9.19;63.97;101379.38;4901186;28;45657;-70
2022/12/03 02:42:58;;;;;;;;;56.00;45.50;;;;;8.99;63.88;101385.56;4889965;29;46255;-72
2022/12/03 02:45:33;;;;;;;;;46.50;37.75;;;;;8.47;63.99;101306.16;4908967;28;45476;-70
2022/12/03 02:48:04;;;;;;;;;59.00;44.50;;;;;8.98;64.40;101384.72;4899055;28;45499;-71
2022/12/03 02:50:36;;;;;;;;;49.50;40.50;;;;;8.55;64.92;101350.09;4890406;29;47451;-72
2022/12/03 02:53:06;;;;;;;;;43.25;37.25;;;;;8.95;64.85;101386.63;4906000;28;45663;-72
2022/12/03 02:55:34;;;;;;;;;45.00;39.75;;;;;8.96;64.07;101381.25;4900836;28;45551;-72
2022/12/03 02:58:01;;;;;;;;;46.25;40.00;;;;;8.22;63.66;101277.91;4912578;28;45584;-72
2022/12/03 03:00:27;;;;;;;;;31.25;25.00;;;;;8.91;64.39;101372.59;4914449;28;45600;-72
2022/12/03 03:02:52;;;;;;;;;48.25;40.25;;;;;9.08;64.13;101379.84;4924375;28;45566;-71
2022/12/03 03:05:22;;;;;;;;;53.75;41.25;;;;;8.79;64.33;101375.78;4970305;28;45535;-72
2022/12/03 03:07:49;;;;;;;;;52.25;41.00;;;;;8.82;64.56;101370.31;4994650;28;45449;-72
2022/12/03 03:10:17;;;;;;;;;38.00;33.50;;;;;8.53;64.29;101306.78;4994497;28;46335;-72
2022/12/03 03:12:42;;;;;;;;;41.00;37.75;;;;;8.91;64.59;101351.31;4995033;28;45466;-72
2022/12/03 03:15:10;;;;;;;;;46.50;41.25;;;;;9.12;64.08;101359.28;4995131;28;45428;-72
2022/12/03 03:17:35;;;;;;;;;49.75;43.75;;;;;8.82;64.52;101368.53;4995595;28;45469;-71
2022/12/03 03:20:02;;;;;;;;;44.75;39.50;;;;;8.78;65.66;101358.94;4994841;28;46011;-72
2022/12/03 03:22:37;;;;;;;;;44.50;37.50;;;;;8.61;65.18;101357.00;4994627;28;45474;-72
2022/12/03 03:25:04;;;;;;;;;44.00;40.00;;;;;8.73;65.53;101367.13;4994824;28;45546;-72
2022/12/03 03:27:29;;;;;;;;;49.25;38.50;;;;;8.78;65.69;101369.56;4994890;28;45399;-72
2022/12/03 03:29:57;;;;;;;;;35.50;33.75;;;;;8.81;65.09;101382.75;4994854;28;45455;-72
2022/12/03 03:32:23;;;;;;;;;55.50;44.75;;;;;8.69;64.96;101378.81;4994885;28;45434;-71
2022/12/03 03:34:48;;;;;;;;;41.00;36.25;;;;;8.67;64.62;101388.66;4995054;28;45482;-72
2022/12/03 03:37:14;;;;;;;;;48.25;40.25;;;;;8.77;64.68;101372.31;4994974;28;45713;-72
2022/12/03 03:39:39;;;;;;;;;48.50;40.75;;;;;8.81;64.63;101380.09;4994833;28;46313;-72
2022/12/03 03:42:05;;;;;;;;;44.00;38.00;;;;;8.99;64.59;101377.56;4994516;28;45410;-72
2022/12/03 03:44:31;;;;;;;;;43.50;35.50;;;;;8.63;63.72;101295.75;4994976;28;45471;-72
2022/12/03 03:46:57;;;;;;;;;48.00;40.75;;;;;8.88;63.92;101376.25;4994893;28;45452;-72
2022/12/03 03:49:22;;;;;;;;;34.75;28.25;;;;;8.77;64.06;101367.00;4994731;28;46029;-71
2022/12/03 03:51:48;;;;;;;;;39.75;33.50;;;;;8.63;64.19;101365.75;4977106;28;45873;-72
2022/12/03 03:54:14;;;;;;;;;60.00;45.00;;;;;8.86;63.63;101367.47;4994747;28;45418;-72
2022/12/03 03:56:40;;;;;;;;;44.25;39.50;;;;;8.84;63.87;101368.44;4994596;28;45368;-72
2022/12/03 03:59:05;;;;;;;;;53.25;41.00;;;;;8.85;63.68;101356.88;4994587;28;47005;-72
2022/12/03 04:01:31;;;;;;;;;56.50;41.25;;;;;8.87;63.65;101363.03;4994356;28;45340;-72
2022/12/03 04:03:58;;;;;;;;;44.50;38.25;;;;;8.62;63.57;101374.66;4989425;28;45527;-72
2022/12/03 04:06:27;;;;;;;;;45.50;39.50;;;;;8.81;63.18;101363.25;4987677;28;45530;-72
2022/12/03 04:08:52;;;;;;;;;49.50;36.75;;;;;8.85;63.24;101360.41;4983922;28;45700;-72
2022/12/03 04:14:02;;;;;;;;;52.00;44.50;;;;;9.05;62.70;101367.53;4985339;28;45290;-72
2022/12/03 04:16:27;;;;;;;;;44.50;37.25;;;;;8.87;62.54;101373.66;4971762;28;45406;-72
2022/12/03 04:18:53;;;;;;;;;29.25;25.75;;;;;9.00;62.34;101374.00;4985231;28;46107;-72
2022/12/03 04:24:07;;;;;;;;;46.50;36.00;;;;;8.63;62.36;101304.59;4982209;28;45432;-72
2022/12/03 04:29:17;;;;;;;;;41.25;36.50;;;;;8.85;62.22;101364.88;4994088;28;45474;-72
2022/12/03 04:37:11;;;;;;;;;42.00;41.00;;;;;8.19;63.54;101331.16;4979420;28;45377;-72
2022/12/03 04:39:36;;;;;;;;;33.50;32.25;;;;;8.62;63.49;101342.75;4994087;28;45575;-72
2022/12/03 04:42:02;;;;;;;;;37.50;35.00;;;;;8.75;63.08;101354.59;4993651;28;45514;-72
2022/12/03 04:44:36;;;;;;;;;39.25;36.75;;;;;8.87;62.49;101353.22;4993702;28;45450;-72
2022/12/03 04:47:09;;;;;;;;;36.25;32.50;;;;;8.78;62.29;101318.19;4994246;28;45428;-72
2022/12/03 04:49:36;;;;;;;;;46.25;40.50;;;;;8.53;62.82;101349.31;4994027;28;46087;-72
2022/12/03 04:52:02;;;;;;;;;44.75;38.75;;;;;8.62;62.65;101358.69;4993999;28;45501;-72
2022/12/03 04:54:28;;;;;;;;;37.75;31.25;;;;;8.46;63.09;101342.50;4993634;28;45432;-73
2022/12/03 04:56:53;;;;;;;;;42.25;37.50;;;;;8.34;63.26;101317.28;4993882;28;45578;-72
2022/12/03 04:59:19;;;;;;;;;44.50;37.75;;;;;8.67;62.74;101348.75;4976355;28;46430;-72
2022/12/03 05:01:45;;;;;;;;;47.50;38.25;;;;;8.51;62.24;101339.69;4993672;28;45485;-72
2022/12/03 05:04:12;;;;;;;;;37.50;31.75;;;;;8.71;63.04;101342.38;4994084;28;45471;-72
2022/12/03 05:06:37;;;;;;;;;49.25;39.50;;;;;8.59;61.77;101290.53;4993585;28;45588;-72
2022/12/03 05:09:03;;;;;;;;;45.00;35.25;;;;;8.92;62.05;101343.25;4993351;28;46049;-72
2022/12/03 05:11:28;;;;;;;;;31.75;27.75;;;;;8.56;62.28;101340.34;4993765;28;45435;-72
2022/12/03 05:13:54;;;;;;;;;36.25;31.50;;;;;8.83;61.96;101340.13;4993698;28;45393;-71
2022/12/03 05:16:19;;;;;;;;;38.00;33.75;;;;;8.68;62.03;101337.19;4993751;28;45389;-72
2022/12/03 05:18:44;;;;;;;;;31.75;25.50;;;;;8.66;62.37;101341.69;4993732;28;46983;-79
2022/12/03 05:21:10;;;;;;;;;26.00;22.25;;;;;8.32;62.48;101324.44;4993606;28;45370;-79
2022/12/03 05:23:35;;;;;;;;;32.75;25.25;;;;;8.59;62.47;101340.22;4993703;28;45943;-79
2022/12/03 05:26:00;;;;;;;;;39.25;37.25;;;;;8.13;62.37;101307.53;4994089;28;45348;-79
2022/12/03 05:28:26;;;;;;;;;35.25;32.50;;;;;8.77;62.68;101327.09;4993629;28;46026;-79
2022/12/03 05:30:51;;;;;;;;;39.00;31.50;;;;;8.47;62.37;101338.06;4993740;28;45411;-78
2022/12/03 05:33:17;;;;;;;;;37.50;29.75;;;;;8.61;61.93;101335.72;4994109;28;45463;-79
2022/12/03 05:35:42;;;;;;;;;33.50;27.50;;;;;8.57;62.25;101339.41;4996994;28;45395;-79
2022/12/03 05:38:08;;;;;;;;;33.50;32.75;;;;;8.45;62.18;101323.94;4997232;28;46220;-79
2022/12/03 05:40:33;;;;;;;;;15.00;15.00;;;;;8.66;62.11;101343.50;4979469;28;45500;-78
2022/12/03 05:43:01;;;;;;;;;45.00;37.00;;;;;8.80;61.98;101340.25;4996858;28;45451;-79
2022/12/03 05:45:28;;;;;;;;;48.50;36.50;;;;;8.58;62.19;101342.03;4996613;28;45454;-78
2022/12/03 05:47:55;;;;;;;;;37.25;32.00;;;;;8.69;62.09;101341.59;4995884;28;46159;-79
2022/12/03 05:50:23;;;;;;;;;36.50;33.25;;;;;8.86;61.65;101334.69;4996336;28;45309;-78
2022/12/03 05:52:48;;;;;;;;;32.00;29.50;;;;;8.55;61.22;101320.00;4996127;28;45440;-79
2022/12/03 05:55:14;;;;;;;;;42.75;34.25;;;;;8.46;61.72;101339.00;4978797;28;45496;-78
2022/12/03 05:57:39;;;;;;;;;48.50;41.00;;;;;8.57;61.76;101339.41;4996184;28;45581;-78
2022/12/03 06:00:10;;;;;;;;;39.75;36.50;;;;;8.45;62.10;101339.88;4996246;28;45747;-78
2022/12/03 06:02:36;;;;;;;;;41.75;36.00;;;;;8.35;62.17;101337.59;4996561;28;45452;-78
2022/12/03 06:05:01;;;;;;;;;34.75;31.50;;;;;8.57;61.83;101329.66;4996011;28;45442;-78
2022/12/03 06:07:26;;;;;;;;;43.00;37.25;;;;;8.38;62.49;101345.47;4995921;28;45536;-79
2022/12/03 06:09:52;;;;;;;;;28.75;26.25;;;;;8.35;62.61;101334.09;4996049;28;45472;-77
2022/12/03 06:12:17;;;;;;;;;26.25;22.75;;;;;8.52;61.86;101334.28;4995289;28;45603;-77
2022/12/03 06:14:42;;;;;;;;;38.50;35.50;;;;;8.47;62.20;101336.28;4978567;28;45419;-78
2022/12/03 06:17:08;;;;;;;;;23.75;19.75;;;;;8.57;61.96;101334.09;4996033;28;46024;-78
2022/12/03 06:19:33;;;;;;;;;39.75;35.50;;;;;8.55;61.79;101320.00;4996042;28;45466;-78
2022/12/03 06:21:58;;;;;;;;;44.50;37.25;;;;;8.56;61.50;101319.09;4996040;28;45717;-78
2022/12/03 06:24:24;;;;;;;;;33.75;30.25;;;;;8.71;61.36;101317.56;4995860;28;45518;-78
2022/12/03 06:26:49;;;;;;;;;36.25;32.25;;;;;8.86;61.17;101326.69;4995933;28;46270;-77
2022/12/03 06:29:14;;;;;;;;;35.75;29.50;;;;;8.98;61.53;101323.50;4995660;28;45381;-78
2022/12/03 06:31:40;;;;;;;;;32.50;31.25;;;;;8.72;61.61;101338.78;4978417;28;45445;-78
2022/12/03 06:34:05;;;;;;;;;22.50;22.00;;;;;8.34;62.32;101317.28;4978442;28;45555;-79
2022/12/03 06:36:30;;;;;;;;;42.00;36.00;;;;;8.31;62.04;101327.16;4977838;28;49975;-79
2022/12/03 06:38:56;;;;;;;;;39.75;35.00;;;;;8.32;61.96;101323.59;4995664;28;45433;-78
2022/12/03 06:41:21;;;;;;;;;39.25;36.00;;;;;8.09;62.49;101330.69;4996012;28;45371;-79
2022/12/03 06:43:46;;;;;;;;;42.50;33.00;;;;;8.53;63.01;101325.41;4978071;28;45480;-79
2022/12/03 06:46:12;;;;;;;;;33.50;30.00;;;;;8.49;62.21;101330.88;4993967;28;46272;-79
2022/12/03 06:48:37;;;;;;;;;29.75;29.75;;;;;8.35;61.97;101312.81;4995453;28;45438;-78
2022/12/03 06:51:02;;;;;;;;;37.00;30.75;;;;;8.29;61.23;101282.03;4977949;28;45404;-78
2022/12/03 06:53:28;;;;;;;;;30.75;27.00;;;;;8.38;62.24;101329.53;4995871;28;45389;-78
2022/12/03 06:55:53;;;;;;;;;38.00;35.25;;;;;8.13;62.27;101319.00;4995427;28;47041;-77
2022/12/03 06:58:18;;;;;;;;;36.75;31.75;;;;;8.29;62.10;101329.88;4995283;28;45380;-78
2022/12/03 07:00:44;;;;;;;;;18.50;18.50;;;;;8.46;62.14;101328.34;4995554;28;45390;-78
2022/12/03 07:03:09;;;;;;;;;17.50;15.75;;;;;8.17;61.95;101291.38;4995707;28;45498;-78
2022/12/03 07:05:34;;;;;;;;;33.75;33.25;;;;;8.50;61.77;101337.94;4995308;28;45375;-78
2022/12/03 07:08:00;;;;;;;;;27.75;25.75;;;;;8.46;61.58;101331.03;4995609;28;45340;-78
2022/12/03 07:10:25;;;;;;;;;40.50;33.00;;;;;8.57;61.72;101334.09;4995444;28;45326;-78
2022/12/03 07:12:50;;;;;;;;;39.00;36.75;;;;;8.48;61.73;101339.81;4995754;28;45384;-78
2022/12/03 07:15:16;;;;;;;;;43.75;31.00;;;;;8.54;61.52;101331.56;4977218;28;45396;-79
2022/12/03 07:17:42;;;;;;;;;46.50;41.75;;;;;8.47;61.55;101324.78;4995014;28;45558;-79
2022/12/03 07:20:08;;;;;;;;;30.50;26.00;;;;;8.46;61.50;101320.38;4994899;28;46089;-78
2022/12/03 07:22:33;;;;;;;;;30.75;30.75;;;;;8.40;61.14;101303.72;4994922;28;45689;-78
2022/12/03 07:24:58;;;;;;;;;40.75;30.75;;;;;8.73;61.34;101329.88;4994709;28;45553;-79
2022/12/03 07:27:24;;;;;;;;;28.50;26.50;;;;;8.54;60.87;101297.88;4994679;28;45380;-78
2022/12/03 07:29:50;;;;;;;;;36.25;33.00;;;;;8.30;61.89;101330.75;4994819;28;45401;-77
2022/12/03 07:32:15;;;;;;;;;32.75;28.75;;;;;7.97;61.60;101262.94;4995102;28;45435;-77
2022/12/03 07:34:41;;;;;;;;;33.75;26.50;;;;;8.75;61.49;101335.97;4994248;28;46276;-78
2022/12/03 07:37:06;;;;;;;;;33.00;25.00;;;;;8.66;61.22;101344.34;4994752;28;45887;-78
2022/12/03 07:39:31;;;;;;;;;26.50;22.75;;;;;8.79;60.82;101341.19;4994474;28;45546;-79
2022/12/03 07:41:57;;;;;;;;;35.75;30.00;;;;;8.81;60.73;101348.16;4994895;28;45529;-78
2022/12/03 07:44:22;;;;;;;;;34.25;27.75;;;;;8.94;60.93;101335.22;4993452;28;47253;-78
2022/12/03 07:46:47;;;;;;;;;27.50;25.75;;;;;8.60;61.22;101328.66;4994631;28;45354;-79
2022/12/03 07:49:13;;;;;;;;;36.50;34.50;;;;;8.33;61.20;101312.03;4994609;28;45455;-78
2022/12/03 07:51:38;;;;;;;;;36.00;33.00;;;;;8.50;61.50;101356.56;4994864;28;45413;-77
2022/12/03 07:54:04;;;;;;;;;40.00;34.50;;;;;8.57;61.48;101355.38;4994760;28;45575;-77
2022/12/03 07:56:29;;;;;;;;;33.25;27.75;;;;;8.75;61.28;101348.44;4992015;28;45611;-79
2022/12/03 07:58:55;;;;;;;;;35.25;33.25;;;;;7.90;60.87;101250.84;4990556;28;45458;-78
2022/12/03 08:01:20;;;;;;;;;34.00;27.75;;;;;8.72;61.40;101353.88;4984873;28;45556;-79
2022/12/03 08:03:45;;;;;;;;;34.25;30.75;;;;;8.63;61.53;101349.81;4981976;28;45455;-79
2022/12/03 08:06:11;;;;;;;;;28.25;28.25;;;;;8.81;61.32;101353.47;4967419;28;45412;-78
2022/12/03 08:08:36;;;;;;;;;24.75;20.25;;;;;8.77;61.16;101346.56;4982652;28;45535;-78
2022/12/03 08:11:02;;;;;;;;;38.25;31.25;;;;;8.90;60.71;101349.56;4950595;28;45411;-78
2022/12/03 08:13:27;;;;;;;;;32.75;30.25;;;;;8.75;60.87;101357.25;4990354;28;45447;-77
2022/12/03 08:16:00;;;;;;;;;33.25;29.50;;;;;8.68;60.97;101353.16;4967764;28;45356;-78
2022/12/03 08:18:27;;;;;;;;;30.75;29.50;;;;;8.75;60.92;101356.41;4983924;28;45497;-78
2022/12/03 08:20:53;;;;;;;;;35.50;32.75;;;;;7.89;60.59;101210.13;4983347;28;46063;-77
2022/12/03 08:23:21;;;;;;;;;26.25;24.00;;;;;8.56;60.85;101313.75;4990478;28;45593;-78
2022/12/03 08:25:48;;;;;;;;;29.50;26.25;;;;;9.00;60.38;101342.06;4986026;28;45607;-79
2022/12/03 08:28:15;;;;;;;;;26.50;25.50;;;;;8.85;60.44;101343.56;4984167;28;45431;-78
2022/12/03 08:30:41;;;;;;;;;30.50;27.75;;;;;8.79;60.92;101335.88;4983403;28;45865;-78
2022/12/03 08:33:26;;;;;;;;;35.75;31.25;;;;;8.61;60.82;101306.47;4982706;28;45458;-79
2022/12/03 08:35:52;;;;;;;;;29.75;27.75;;;;;8.98;60.12;101346.59;4968524;28;45857;-78
2022/12/03 08:38:21;;;;;;;;;30.25;26.75;;;;;8.55;60.12;101331.50;4951075;28;45466;-78
2022/12/03 08:40:50;;;;;;;;;29.25;26.50;;;;;8.76;59.99;101291.66;4988079;28;45830;-78
2022/12/03 08:43:26;;;;;;;;;31.50;30.00;;;;;9.12;59.97;101332.69;4984847;28;46397;-78
2022/12/03 08:45:53;;;;;;;;;30.25;28.75;;;;;8.98;59.87;101334.16;4982379;28;45432;-79
2022/12/03 08:48:32;;;;;;;;;28.50;24.50;;;;;9.06;60.07;101345.31;4984852;28;45375;-78
2022/12/03 08:51:09;;;;;;;;;28.25;28.25;;;;;9.05;60.27;101340.06;4969312;28;45520;-78
2022/12/03 08:53:45;;;;;;;;;33.50;32.25;;;;;9.05;60.43;101342.72;4984026;28;45482;-78
2022/12/03 08:56:16;;;;;;;;;39.25;29.00;;;;;8.91;60.13;101336.19;4984615;28;45495;-79
2022/12/03 08:58:43;;;;;;;;;28.75;25.25;;;;;8.90;60.88;101330.94;4985660;28;45419;-79
2022/12/03 09:01:11;;;;;;;;;30.50;25.75;;;;;9.07;60.66;101332.91;4964504;28;45457;-78
2022/12/03 09:03:43;;;;;;;;;32.75;28.50;;;;;8.96;60.36;101333.38;4984413;28;46640;-78
2022/12/03 09:06:08;;;;;;;;;27.25;25.00;;;;;9.01;59.95;101327.81;4981994;28;45533;-79
2022/12/03 09:08:33;;;;;;;;;34.50;29.50;;;;;9.27;59.39;101345.31;4984421;28;45506;-79
2022/12/03 09:11:00;;;;;;;;;21.50;21.50;;;;;9.19;59.73;101335.00;4968512;28;45418;-78
2022/12/03 09:13:25;;;;;;;;;35.50;28.75;;;;;8.91;60.13;101301.63;4986066;28;47303;-79
2022/12/03 09:15:50;;;;;;;;;25.50;25.00;;;;;9.13;59.69;101331.75;4969743;28;45318;-78
2022/12/03 09:18:16;;;;;;;;;22.25;20.75;;;;;8.96;59.71;101303.22;4991369;28;45368;-78
2022/12/03 09:20:41;;;;;;;;;14.50;14.50;;;;;9.13;60.51;101329.09;4985605;28;45309;-78
2022/12/03 09:23:06;;;;;;;;;33.50;28.00;;;;;9.30;60.75;101336.31;4990676;28;47236;-78
2022/12/03 09:25:32;;;;;;;;;23.75;20.25;;;;;9.21;59.55;101335.78;4969094;28;45839;-78
2022/12/03 09:27:57;;;;;;;;;23.50;21.75;;;;;9.19;60.06;101329.69;4986649;28;45511;-78
2022/12/03 09:30:22;;;;;;;;;23.75;21.00;;;;;9.01;60.13;101336.66;4985048;28;45862;-78
2022/12/03 09:32:48;;;;;;;;;27.50;25.00;;;;;8.71;60.36;101331.72;4995899;28;46208;-77
2022/12/03 09:35:13;;;;;;;;;29.25;27.00;;;;;8.96;60.02;101330.69;4994038;28;45444;-78
2022/12/03 09:37:38;;;;;;;;;28.75;26.00;;;;;9.11;60.64;101329.16;4989828;28;45406;-78
2022/12/03 09:40:06;;;;;;;;;19.75;18.25;;;;;9.08;59.59;101330.16;4985654;28;45444;-78
2022/12/03 09:42:31;;;;;;;;;18.50;16.75;;;;;8.93;59.95;101344.13;4987867;28;46619;-78
2022/12/03 09:44:57;;;;;;;;;27.00;24.50;;;;;9.26;59.82;101335.59;4983524;28;45518;-78
2022/12/03 09:47:23;;;;;;;;;17.00;15.00;;;;;9.18;59.93;101340.41;4988013;28;45523;-78
2022/12/03 09:49:50;;;;;;;;;22.25;22.25;;;;;9.12;58.93;101298.09;4989249;28;45450;-78
2022/12/03 09:52:26;;;;;;;;;23.25;21.00;;;;;9.36;58.91;101336.06;4978792;28;45356;-77
2022/12/03 09:54:52;;;;;;;;;21.00;17.25;;;;;9.33;58.94;101334.38;4982320;28;45489;-78
2022/12/03 09:57:18;;;;;;;;;23.50;20.00;;;;;9.62;58.93;101345.50;4985403;28;45626;-78
2022/12/03 09:59:44;;;;;;;;;24.50;22.00;;;;;9.40;58.38;101341.16;4976801;28;45681;-77
2022/12/03 10:02:30;;;;;;;;;25.00;22.25;;;;;9.39;58.21;101339.47;4980940;28;46996;-79
2022/12/03 10:04:56;;;;;;;;;19.75;17.25;;;;;9.37;58.13;101338.66;4980230;28;45395;-78
2022/12/03 10:07:23;;;;;;;;;18.50;18.50;;;;;9.42;58.01;101333.97;4976558;28;45475;-76
2022/12/03 10:09:49;;;;;;;;;23.00;21.25;;;;;9.19;58.10;101313.72;4976647;28;45416;-75
2022/12/03 10:12:21;;;;;;;;;19.50;19.50;;;;;9.16;58.32;101331.63;4976517;28;45579;-79
2022/12/03 10:14:47;;;;;;;;;19.50;16.50;;;;;9.26;58.67;101315.16;4986700;28;45459;-78
2022/12/03 10:17:12;;;;;;;;;27.25;23.75;;;;;9.01;57.95;101266.63;4976460;28;45430;-78
2022/12/03 10:19:38;;;;;;;;;23.00;20.25;;;;;9.31;58.45;101309.63;4958477;28;45613;-78
2022/12/03 10:22:03;;;;;;;;;12.25;11.75;;;;;9.06;57.94;101246.84;4981127;28;47216;-78
2022/12/03 10:24:34;;;;;;;;;26.00;22.50;;;;;9.14;58.06;101302.41;4995632;28;45320;-77
2022/12/03 10:27:02;;;;;;;;;24.75;20.50;;;;;9.48;58.90;101300.88;4978183;28;45472;-77
2022/12/03 10:29:33;;;;;;;;;18.50;16.00;;;;;9.41;57.96;101286.97;4995629;28;45374;-77
2022/12/03 10:32:10;;;;;;;;;7.00;6.50;;;;;9.42;58.06;101298.47;4976557;28;45550;-78
2022/12/03 10:34:39;;;;;;;;;19.50;19.25;;;;;9.46;57.94;101296.56;4985890;28;45434;-77
2022/12/03 10:37:21;;;;;;;;;20.00;20.00;;;;;9.56;57.59;101292.53;4996036;28;45369;-79
2022/12/03 10:40:01;;;;;;;;;24.75;24.50;;;;;9.60;58.10;101287.00;4995624;28;45462;-79
2022/12/03 10:42:38;;;;;;;;;16.75;16.75;;;;;9.57;58.06;101294.28;4995392;28;46495;-79
2022/12/03 10:45:22;;;;;;;;;21.50;21.50;;;;;9.83;58.25;101295.72;4994872;28;45453;-79
2022/12/03 10:48:10;;;;;;;;;17.50;16.50;;;;;9.85;57.87;101292.97;4966482;28;45791;-78
2022/12/03 10:50:36;;;;;;;;;21.75;19.50;;;;;9.67;57.18;101279.56;4986156;28;45427;-80
2022/12/03 10:53:03;;;;;;;;;20.25;19.00;;;;;9.83;57.50;101287.72;4995402;28;46273;-79
2022/12/03 10:55:36;;;;;;;;;21.25;21.25;;;;;9.92;56.78;101289.94;4995216;28;45451;-79
2022/12/03 10:58:01;;;;;;;;;8.00;8.00;;;;;9.40;56.83;101212.50;4995352;28;45411;-78
2022/12/03 11:00:27;;;;;;;;;19.00;17.00;;;;;9.52;56.99;101265.19;4996845;28;45661;-77
2022/12/03 11:02:52;;;;;;;;;19.50;16.75;;;;;9.51;57.67;101274.09;4994002;28;46558;-76
2022/12/03 11:05:25;;;;;;;;;23.25;17.00;;;;;9.54;57.61;101273.09;4994841;28;45330;-79
2022/12/03 11:07:51;;;;;;;;;22.50;20.25;;;;;9.77;57.58;101275.56;4995492;28;45520;-76
2022/12/03 11:10:18;;;;;;;;;22.25;20.25;;;;;9.57;57.88;101278.28;4994497;28;45412;-76
2022/12/03 11:13:21;;;;;;;;;23.75;23.25;;;;;9.53;57.33;101276.72;4988742;28;46304;-77
2022/12/03 11:15:46;;;;;;;;;17.00;16.25;;;;;9.64;57.43;101269.06;4985678;28;45384;-78
2022/12/03 11:18:34;;;;;;;;;17.00;16.25;;;;;8.99;58.52;101269.34;4995319;28;45749;-78
2022/12/03 11:21:05;;;;;;;;;23.00;22.00;;;;;9.34;58.22;101266.03;4995072;28;45377;-78
2022/12/03 11:23:42;;;;;;;;;26.75;22.25;;;;;9.25;58.36;101264.66;4994818;28;45592;-78
2022/12/03 11:26:08;;;;;;;;;26.75;25.75;;;;;9.26;58.10;101255.75;4993209;28;45468;-78
2022/12/03 11:28:35;;;;;;;;;17.25;17.25;;;;;9.50;57.90;101261.72;4994561;28;45381;-78
2022/12/03 11:31:13;;;;;;;;;36.50;28.75;;;;;9.27;57.74;101254.78;4994762;28;45507;-78